sensor_id;sensor_type;location;lat;lon;timestamp;pressure;altitude;pressure_sealevel;temperature;humidity
5522;BME280;2783;48.730;8.006;2023-03-24T00:01:58;99086.88;;;16.19;75.96
5522;BME280;2783;48.730;8.006;2023-03-24T00:04:24;99081.28;;;16.22;74.67
5522;BME280;2783;48.730;8.006;2023-03-24T00:06:49;99078.56;;;16.34;74.87
5522;BME280;2783;48.730;8.006;2023-03-24T00:09:16;99074.72;;;16.38;74.77
5522;BME280;2783;48.730;8.006;2023-03-24T00:11:41;99060.53;;;16.36;74.34
5522;BME280;2783;48.730;8.006;2023-03-24T00:14:07;99069.47;;;16.37;74.26
5522;BME280;2783;48.730;8.006;2023-03-24T00:16:36;99062.91;;;16.41;74.30
5522;BME280;2783;48.730;8.006;2023-03-24T00:19:02;99058.50;;;16.40;75.16
5522;BME280;2783;48.730;8.006;2023-03-24T00:21:28;99056.91;;;16.37;75.10
5522;BME280;2783;48.730;8.006;2023-03-24T00:23:53;99056.50;;;16.31;76.37
5522;BME280;2783;48.730;8.006;2023-03-24T00:26:19;99051.13;;;16.31;75.80
5522;BME280;2783;48.730;8.006;2023-03-24T00:28:45;99045.94;;;16.28;76.08
5522;BME280;2783;48.730;8.006;2023-03-24T00:31:12;99041.03;;;16.22;76.48
5522;BME280;2783;48.730;8.006;2023-03-24T00:33:41;99036.53;;;16.22;76.14
5522;BME280;2783;48.730;8.006;2023-03-24T00:36:07;99027.38;;;16.25;75.10
5522;BME280;2783;48.730;8.006;2023-03-24T00:38:36;99023.88;;;16.24;75.28
5522;BME280;2783;48.730;8.006;2023-03-24T00:41:01;99019.56;;;16.22;75.03
5522;BME280;2783;48.730;8.006;2023-03-24T00:43:30;99014.41;;;16.19;74.87
5522;BME280;2783;48.730;8.006;2023-03-24T00:46:09;99010.88;;;16.18;74.86
5522;BME280;2783;48.730;8.006;2023-03-24T00:48:35;99014.41;;;16.19;74.11
5522;BME280;2783;48.730;8.006;2023-03-24T00:51:02;99006.03;;;16.23;73.84
5522;BME280;2783;48.730;8.006;2023-03-24T00:53:28;99001.31;;;16.27;73.38
5522;BME280;2783;48.730;8.006;2023-03-24T00:55:54;99009.88;;;16.32;73.27
5522;BME280;2783;48.730;8.006;2023-03-24T00:58:20;99004.53;;;16.32;72.76
5522;BME280;2783;48.730;8.006;2023-03-24T01:00:46;99005.59;;;16.42;71.88
5522;BME280;2783;48.730;8.006;2023-03-24T01:03:12;99006.44;;;16.42;71.20
5522;BME280;2783;48.730;8.006;2023-03-24T01:05:37;99004.81;;;16.52;70.91
5522;BME280;2783;48.730;8.006;2023-03-24T01:08:03;98996.44;;;16.57;69.48
5522;BME280;2783;48.730;8.006;2023-03-24T01:10:30;98991.59;;;16.62;69.73
5522;BME280;2783;48.730;8.006;2023-03-24T01:12:56;98992.84;;;16.69;68.63
5522;BME280;2783;48.730;8.006;2023-03-24T01:15:23;98993.25;;;16.75;68.71
5522;BME280;2783;48.730;8.006;2023-03-24T01:17:50;98987.16;;;16.73;68.47
5522;BME280;2783;48.730;8.006;2023-03-24T01:20:17;98990.69;;;16.74;68.33
5522;BME280;2783;48.730;8.006;2023-03-24T01:22:42;98988.75;;;16.76;68.17
5522;BME280;2783;48.730;8.006;2023-03-24T01:25:16;98990.47;;;16.77;68.05
5522;BME280;2783;48.730;8.006;2023-03-24T01:27:42;98990.38;;;16.78;67.52
5522;BME280;2783;48.730;8.006;2023-03-24T01:30:09;98991.31;;;16.77;67.25
5522;BME280;2783;48.730;8.006;2023-03-24T01:32:35;98995.63;;;16.80;67.47
5522;BME280;2783;48.730;8.006;2023-03-24T01:35:01;99000.00;;;16.81;68.41
5522;BME280;2783;48.730;8.006;2023-03-24T01:37:26;98996.69;;;16.77;67.92
5522;BME280;2783;48.730;8.006;2023-03-24T01:39:51;98990.47;;;16.77;68.38
5522;BME280;2783;48.730;8.006;2023-03-24T01:42:18;98995.09;;;16.75;68.72
5522;BME280;2783;48.730;8.006;2023-03-24T01:44:45;98995.22;;;16.73;68.83
5522;BME280;2783;48.730;8.006;2023-03-24T01:47:10;98994.34;;;16.73;69.26
5522;BME280;2783;48.730;8.006;2023-03-24T01:49:44;98992.00;;;16.68;69.32
5522;BME280;2783;48.730;8.006;2023-03-24T01:52:13;98987.94;;;16.63;68.72
5522;BME280;2783;48.730;8.006;2023-03-24T01:54:43;98984.28;;;16.64;69.07
5522;BME280;2783;48.730;8.006;2023-03-24T01:57:20;98976.13;;;16.65;69.21
5522;BME280;2783;48.730;8.006;2023-03-24T01:59:52;98978.91;;;16.64;69.57
5522;BME280;2783;48.730;8.006;2023-03-24T02:02:18;98969.38;;;16.60;69.62
5522;BME280;2783;48.730;8.006;2023-03-24T02:04:47;98974.75;;;16.60;69.44
5522;BME280;2783;48.730;8.006;2023-03-24T02:07:33;98965.81;;;16.59;69.74
5522;BME280;2783;48.730;8.006;2023-03-24T02:10:00;98959.63;;;16.59;69.27
5522;BME280;2783;48.730;8.006;2023-03-24T02:12:27;98963.03;;;16.61;69.57
5522;BME280;2783;48.730;8.006;2023-03-24T02:14:53;98924.94;;;16.43;69.15
5522;BME280;2783;48.730;8.006;2023-03-24T02:17:29;98955.59;;;16.64;69.10
5522;BME280;2783;48.730;8.006;2023-03-24T02:20:07;98950.13;;;16.66;68.84
5522;BME280;2783;48.730;8.006;2023-03-24T02:27:52;98948.19;;;16.68;69.04
5522;BME280;2783;48.730;8.006;2023-03-24T02:43:23;98930.69;;;16.86;64.95
5522;BME280;2783;48.730;8.006;2023-03-24T02:48:48;98933.47;;;17.08;63.25
5522;BME280;2783;48.730;8.006;2023-03-24T02:56:24;98929.84;;;17.20;63.57
5522;BME280;2783;48.730;8.006;2023-03-24T03:01:42;98927.66;;;17.25;61.89
5522;BME280;2783;48.730;8.006;2023-03-24T03:04:10;98935.88;;;17.35;61.32
5522;BME280;2783;48.730;8.006;2023-03-24T03:06:37;98944.53;;;17.38;61.66
5522;BME280;2783;48.730;8.006;2023-03-24T03:09:10;98940.41;;;17.34;61.74
5522;BME280;2783;48.730;8.006;2023-03-24T03:11:39;98937.59;;;17.36;62.10
5522;BME280;2783;48.730;8.006;2023-03-24T03:16:34;98943.31;;;17.31;61.94
5522;BME280;2783;48.730;8.006;2023-03-24T03:19:04;98935.38;;;17.30;62.44
5522;BME280;2783;48.730;8.006;2023-03-24T03:21:35;98945.28;;;17.29;62.41
5522;BME280;2783;48.730;8.006;2023-03-24T03:24:06;98953.81;;;17.23;62.41
5522;BME280;2783;48.730;8.006;2023-03-24T03:26:33;98957.47;;;17.22;63.46
5522;BME280;2783;48.730;8.006;2023-03-24T03:29:07;98975.41;;;17.22;63.24
5522;BME280;2783;48.730;8.006;2023-03-24T03:31:39;98960.16;;;17.22;62.85
5522;BME280;2783;48.730;8.006;2023-03-24T03:39:15;98963.81;;;17.21;62.12
5522;BME280;2783;48.730;8.006;2023-03-24T03:41:43;98972.63;;;17.23;62.41
5522;BME280;2783;48.730;8.006;2023-03-24T03:44:08;98975.78;;;17.28;61.93
5522;BME280;2783;48.730;8.006;2023-03-24T03:46:34;98983.78;;;17.30;62.14
5522;BME280;2783;48.730;8.006;2023-03-24T03:49:00;98978.59;;;17.27;61.99
5522;BME280;2783;48.730;8.006;2023-03-24T03:51:25;98992.91;;;17.27;61.98
5522;BME280;2783;48.730;8.006;2023-03-24T03:54:01;98985.84;;;17.37;61.61
5522;BME280;2783;48.730;8.006;2023-03-24T03:56:27;98995.50;;;17.40;61.14
5522;BME280;2783;48.730;8.006;2023-03-24T03:58:53;99001.75;;;17.40;60.30
5522;BME280;2783;48.730;8.006;2023-03-24T04:01:19;99007.66;;;17.45;60.45
5522;BME280;2783;48.730;8.006;2023-03-24T04:06:48;99018.69;;;17.53;59.06
5522;BME280;2783;48.730;8.006;2023-03-24T04:09:29;99015.19;;;17.64;58.87
5522;BME280;2783;48.730;8.006;2023-03-24T04:17:03;99035.84;;;17.63;59.53
5522;BME280;2783;48.730;8.006;2023-03-24T04:22:16;99055.50;;;17.53;64.56
5522;BME280;2783;48.730;8.006;2023-03-24T04:24:56;99070.38;;;17.46;69.35
5522;BME280;2783;48.730;8.006;2023-03-24T04:27:26;99089.56;;;17.29;74.34
5522;BME280;2783;48.730;8.006;2023-03-24T04:32:34;99117.97;;;16.84;82.36
5522;BME280;2783;48.730;8.006;2023-03-24T04:35:01;99113.78;;;16.67;84.55
5522;BME280;2783;48.730;8.006;2023-03-24T04:37:32;99114.47;;;16.58;86.68
5522;BME280;2783;48.730;8.006;2023-03-24T04:40:02;99105.47;;;16.47;88.31
5522;BME280;2783;48.730;8.006;2023-03-24T04:42:33;99095.13;;;16.28;91.14
5522;BME280;2783;48.730;8.006;2023-03-24T04:45:01;99080.97;;;16.14;93.43
5522;BME280;2783;48.730;8.006;2023-03-24T04:47:27;99088.91;;;16.15;94.02
5522;BME280;2783;48.730;8.006;2023-03-24T04:49:59;99085.03;;;16.07;95.04
5522;BME280;2783;48.730;8.006;2023-03-24T04:52:24;99089.75;;;16.03;95.23
5522;BME280;2783;48.730;8.006;2023-03-24T04:54:51;99089.09;;;16.00;95.17
5522;BME280;2783;48.730;8.006;2023-03-24T04:57:17;99092.00;;;15.97;96.08
5522;BME280;2783;48.730;8.006;2023-03-24T04:59:42;99090.28;;;15.96;96.95
5522;BME280;2783;48.730;8.006;2023-03-24T05:02:07;99098.13;;;15.99;96.18
5522;BME280;2783;48.730;8.006;2023-03-24T05:04:33;99095.44;;;15.99;96.04
5522;BME280;2783;48.730;8.006;2023-03-24T05:07:00;99101.56;;;16.01;96.38
5522;BME280;2783;48.730;8.006;2023-03-24T05:09:26;99104.25;;;16.01;96.54
5522;BME280;2783;48.730;8.006;2023-03-24T05:11:51;99100.25;;;15.94;96.94
5522;BME280;2783;48.730;8.006;2023-03-24T05:14:17;99120.41;;;15.87;97.67
5522;BME280;2783;48.730;8.006;2023-03-24T05:16:42;99110.53;;;15.74;98.95
5522;BME280;2783;48.730;8.006;2023-03-24T05:19:08;99113.75;;;15.79;98.48
5522;BME280;2783;48.730;8.006;2023-03-24T05:21:33;99118.25;;;15.66;98.93
5522;BME280;2783;48.730;8.006;2023-03-24T05:23:59;99120.56;;;15.58;99.74
5522;BME280;2783;48.730;8.006;2023-03-24T05:26:24;99110.66;;;15.46;100.00
5522;BME280;2783;48.730;8.006;2023-03-24T05:28:52;99105.69;;;15.40;100.00
5522;BME280;2783;48.730;8.006;2023-03-24T05:31:18;99101.22;;;15.41;99.73
5522;BME280;2783;48.730;8.006;2023-03-24T05:33:43;99094.13;;;15.40;100.00
5522;BME280;2783;48.730;8.006;2023-03-24T05:36:09;99093.28;;;15.39;100.00
5522;BME280;2783;48.730;8.006;2023-03-24T05:38:34;99100.34;;;15.40;100.00
5522;BME280;2783;48.730;8.006;2023-03-24T05:41:00;99098.03;;;15.34;100.00
5522;BME280;2783;48.730;8.006;2023-03-24T05:43:26;99092.03;;;15.31;100.00
5522;BME280;2783;48.730;8.006;2023-03-24T05:45:51;99091.72;;;15.35;100.00
5522;BME280;2783;48.730;8.006;2023-03-24T05:48:16;99086.34;;;15.35;100.00
5522;BME280;2783;48.730;8.006;2023-03-24T05:50:42;99096.88;;;15.38;100.00
5522;BME280;2783;48.730;8.006;2023-03-24T05:53:07;99090.88;;;15.35;99.64
5522;BME280;2783;48.730;8.006;2023-03-24T05:55:32;99086.00;;;15.41;99.83
5522;BME280;2783;48.730;8.006;2023-03-24T05:57:59;99077.75;;;15.44;100.00
5522;BME280;2783;48.730;8.006;2023-03-24T06:00:26;99075.63;;;15.49;98.90
5522;BME280;2783;48.730;8.006;2023-03-24T06:02:52;99074.44;;;15.53;99.10
5522;BME280;2783;48.730;8.006;2023-03-24T06:05:17;99082.56;;;15.52;97.83
5522;BME280;2783;48.730;8.006;2023-03-24T06:07:44;99090.50;;;15.53;96.26
5522;BME280;2783;48.730;8.006;2023-03-24T06:10:09;99098.25;;;15.58;95.50
5522;BME280;2783;48.730;8.006;2023-03-24T06:12:35;99100.41;;;15.65;95.56
5522;BME280;2783;48.730;8.006;2023-03-24T06:15:01;99109.44;;;15.64;96.16
5522;BME280;2783;48.730;8.006;2023-03-24T06:17:27;99106.53;;;15.67;96.19
5522;BME280;2783;48.730;8.006;2023-03-24T06:19:54;99124.88;;;15.73;96.00
5522;BME280;2783;48.730;8.006;2023-03-24T06:22:28;99143.88;;;15.70;96.80
5522;BME280;2783;48.730;8.006;2023-03-24T06:24:54;99146.31;;;15.61;97.87
5522;BME280;2783;48.730;8.006;2023-03-24T06:27:20;99148.88;;;15.62;98.72
5522;BME280;2783;48.730;8.006;2023-03-24T06:29:49;99147.34;;;15.58;99.77
5522;BME280;2783;48.730;8.006;2023-03-24T06:32:17;99134.22;;;15.41;100.00
5522;BME280;2783;48.730;8.006;2023-03-24T06:34:42;99135.94;;;15.42;100.00
5522;BME280;2783;48.730;8.006;2023-03-24T06:37:07;99147.16;;;15.35;100.00
5522;BME280;2783;48.730;8.006;2023-03-24T06:39:33;99147.03;;;15.36;100.00
5522;BME280;2783;48.730;8.006;2023-03-24T06:41:58;99159.28;;;15.40;100.00
5522;BME280;2783;48.730;8.006;2023-03-24T06:44:23;99160.44;;;15.36;100.00
5522;BME280;2783;48.730;8.006;2023-03-24T06:46:48;99160.75;;;15.32;100.00
5522;BME280;2783;48.730;8.006;2023-03-24T06:49:14;99168.69;;;15.33;100.00
5522;BME280;2783;48.730;8.006;2023-03-24T06:51:39;99163.31;;;15.33;100.00
5522;BME280;2783;48.730;8.006;2023-03-24T06:54:04;99166.00;;;15.33;100.00
5522;BME280;2783;48.730;8.006;2023-03-24T06:56:30;99169.06;;;15.27;100.00
5522;BME280;2783;48.730;8.006;2023-03-24T06:58:55;99189.81;;;15.24;100.00
5522;BME280;2783;48.730;8.006;2023-03-24T07:01:21;99200.53;;;15.24;100.00
5522;BME280;2783;48.730;8.006;2023-03-24T07:03:46;99204.19;;;15.23;100.00
5522;BME280;2783;48.730;8.006;2023-03-24T07:06:12;99185.34;;;15.24;100.00
5522;BME280;2783;48.730;8.006;2023-03-24T07:08:37;99178.56;;;15.19;100.00
5522;BME280;2783;48.730;8.006;2023-03-24T07:11:03;99189.56;;;15.14;100.00
5522;BME280;2783;48.730;8.006;2023-03-24T07:13:28;99189.56;;;15.14;100.00
5522;BME280;2783;48.730;8.006;2023-03-24T07:15:53;99200.47;;;15.11;100.00
5522;BME280;2783;48.730;8.006;2023-03-24T07:18:19;99208.22;;;15.16;100.00
5522;BME280;2783;48.730;8.006;2023-03-24T07:20:45;99229.66;;;15.16;100.00
5522;BME280;2783;48.730;8.006;2023-03-24T07:23:10;99221.50;;;15.17;100.00
5522;BME280;2783;48.730;8.006;2023-03-24T07:25:38;99214.44;;;15.16;100.00
5522;BME280;2783;48.730;8.006;2023-03-24T07:28:03;99202.59;;;15.06;100.00
5522;BME280;2783;48.730;8.006;2023-03-24T07:30:29;99195.72;;;15.02;100.00
5522;BME280;2783;48.730;8.006;2023-03-24T07:32:55;99207.56;;;14.98;100.00
5522;BME280;2783;48.730;8.006;2023-03-24T07:35:20;99188.84;;;14.84;100.00
5522;BME280;2783;48.730;8.006;2023-03-24T07:37:46;99189.03;;;14.81;100.00
5522;BME280;2783;48.730;8.006;2023-03-24T07:40:11;99189.78;;;14.83;100.00
5522;BME280;2783;48.730;8.006;2023-03-24T07:42:40;99172.50;;;14.89;100.00
5522;BME280;2783;48.730;8.006;2023-03-24T07:45:06;99164.63;;;15.00;100.00
5522;BME280;2783;48.730;8.006;2023-03-24T07:47:33;99153.25;;;14.96;100.00
5522;BME280;2783;48.730;8.006;2023-03-24T07:49:58;99163.50;;;14.90;100.00
5522;BME280;2783;48.730;8.006;2023-03-24T07:52:24;99164.16;;;14.93;100.00
5522;BME280;2783;48.730;8.006;2023-03-24T07:54:49;99160.91;;;15.02;100.00
5522;BME280;2783;48.730;8.006;2023-03-24T07:57:14;99149.63;;;14.97;100.00
5522;BME280;2783;48.730;8.006;2023-03-24T07:59:39;99151.13;;;15.01;100.00
5522;BME280;2783;48.730;8.006;2023-03-24T08:02:09;99159.06;;;15.17;100.00
5522;BME280;2783;48.730;8.006;2023-03-24T08:04:40;99163.59;;;15.29;100.00
5522;BME280;2783;48.730;8.006;2023-03-24T08:07:06;99165.63;;;15.39;100.00
5522;BME280;2783;48.730;8.006;2023-03-24T08:09:32;99164.28;;;15.46;100.00
5522;BME280;2783;48.730;8.006;2023-03-24T08:11:58;99154.22;;;15.50;100.00
5522;BME280;2783;48.730;8.006;2023-03-24T08:14:23;99165.09;;;15.47;100.00
5522;BME280;2783;48.730;8.006;2023-03-24T08:16:48;99168.66;;;15.47;100.00
5522;BME280;2783;48.730;8.006;2023-03-24T08:19:14;99172.63;;;15.42;100.00
5522;BME280;2783;48.730;8.006;2023-03-24T08:21:39;99176.41;;;15.38;100.00
5522;BME280;2783;48.730;8.006;2023-03-24T08:24:04;99178.06;;;15.40;100.00
5522;BME280;2783;48.730;8.006;2023-03-24T08:26:30;99185.25;;;15.40;100.00
5522;BME280;2783;48.730;8.006;2023-03-24T08:28:59;99181.69;;;15.39;100.00
5522;BME280;2783;48.730;8.006;2023-03-24T08:31:29;99182.66;;;15.38;100.00
5522;BME280;2783;48.730;8.006;2023-03-24T08:33:55;99180.72;;;15.40;100.00
5522;BME280;2783;48.730;8.006;2023-03-24T08:36:20;99180.91;;;15.37;100.00
5522;BME280;2783;48.730;8.006;2023-03-24T08:38:49;99179.94;;;15.52;100.00
5522;BME280;2783;48.730;8.006;2023-03-24T08:41:15;99178.44;;;15.48;100.00
5522;BME280;2783;48.730;8.006;2023-03-24T08:43:41;99170.75;;;15.56;100.00
5522;BME280;2783;48.730;8.006;2023-03-24T08:46:06;99168.56;;;15.49;100.00
5522;BME280;2783;48.730;8.006;2023-03-24T08:48:32;99165.56;;;15.53;100.00
5522;BME280;2783;48.730;8.006;2023-03-24T08:50:58;99170.44;;;15.61;100.00
5522;BME280;2783;48.730;8.006;2023-03-24T08:53:24;99188.31;;;15.60;100.00
5522;BME280;2783;48.730;8.006;2023-03-24T08:55:49;99182.75;;;15.63;100.00
5522;BME280;2783;48.730;8.006;2023-03-24T08:58:16;99185.91;;;15.70;100.00
5522;BME280;2783;48.730;8.006;2023-03-24T09:00:42;99182.38;;;15.69;100.00
5522;BME280;2783;48.730;8.006;2023-03-24T09:03:08;99178.72;;;15.70;100.00
5522;BME280;2783;48.730;8.006;2023-03-24T09:05:36;99198.03;;;15.75;100.00
5522;BME280;2783;48.730;8.006;2023-03-24T09:08:01;99185.59;;;15.74;100.00
5522;BME280;2783;48.730;8.006;2023-03-24T09:10:27;99180.91;;;15.78;100.00
5522;BME280;2783;48.730;8.006;2023-03-24T09:12:52;99156.50;;;15.68;100.00
5522;BME280;2783;48.730;8.006;2023-03-24T09:15:17;99186.28;;;15.91;100.00
5522;BME280;2783;48.730;8.006;2023-03-24T09:17:43;99196.38;;;16.00;100.00
5522;BME280;2783;48.730;8.006;2023-03-24T09:20:10;99176.88;;;15.98;100.00
5522;BME280;2783;48.730;8.006;2023-03-24T09:22:45;99167.09;;;15.97;100.00
5522;BME280;2783;48.730;8.006;2023-03-24T09:25:16;99164.97;;;16.02;100.00
5522;BME280;2783;48.730;8.006;2023-03-24T09:27:41;99167.88;;;16.11;100.00
5522;BME280;2783;48.730;8.006;2023-03-24T09:30:07;99169.72;;;16.11;100.00
5522;BME280;2783;48.730;8.006;2023-03-24T09:32:33;99175.63;;;16.16;100.00
5522;BME280;2783;48.730;8.006;2023-03-24T09:34:59;99185.16;;;16.07;99.42
5522;BME280;2783;48.730;8.006;2023-03-24T09:37:27;99187.19;;;16.16;99.43
5522;BME280;2783;48.730;8.006;2023-03-24T09:39:52;99199.22;;;16.11;99.17
5522;BME280;2783;48.730;8.006;2023-03-24T09:42:20;99191.72;;;16.16;98.46
5522;BME280;2783;48.730;8.006;2023-03-24T09:44:49;99182.38;;;16.21;98.99
5522;BME280;2783;48.730;8.006;2023-03-24T09:47:20;99176.47;;;16.16;97.43
5522;BME280;2783;48.730;8.006;2023-03-24T09:49:49;99182.28;;;16.23;97.68
5522;BME280;2783;48.730;8.006;2023-03-24T09:52:18;99172.28;;;16.25;97.82
5522;BME280;2783;48.730;8.006;2023-03-24T09:54:55;99199.44;;;16.20;96.16
5522;BME280;2783;48.730;8.006;2023-03-24T09:57:24;99193.88;;;16.23;96.33
5522;BME280;2783;48.730;8.006;2023-03-24T09:59:51;99206.97;;;16.28;96.29
5522;BME280;2783;48.730;8.006;2023-03-24T10:02:17;99208.06;;;16.38;96.16
5522;BME280;2783;48.730;8.006;2023-03-24T10:04:43;99199.16;;;16.37;94.79
5522;BME280;2783;48.730;8.006;2023-03-24T10:07:30;99214.94;;;16.42;94.99
5522;BME280;2783;48.730;8.006;2023-03-24T10:09:57;99209.72;;;16.53;94.11
5522;BME280;2783;48.730;8.006;2023-03-24T10:17:41;99220.13;;;16.57;93.30
5522;BME280;2783;48.730;8.006;2023-03-24T10:20:55;99215.41;;;16.61;92.66
5522;BME280;2783;48.730;8.006;2023-03-24T10:28:20;99229.59;;;16.63;92.06
5522;BME280;2783;48.730;8.006;2023-03-24T10:30:47;99231.53;;;16.61;92.48
5522;BME280;2783;48.730;8.006;2023-03-24T10:33:14;99242.38;;;16.47;93.14
5522;BME280;2783;48.730;8.006;2023-03-24T10:35:45;99257.50;;;16.48;92.87
5522;BME280;2783;48.730;8.006;2023-03-24T10:38:16;99258.91;;;16.53;93.35
5522;BME280;2783;48.730;8.006;2023-03-24T10:40:42;99267.41;;;16.60;93.46
5522;BME280;2783;48.730;8.006;2023-03-24T10:43:07;99259.03;;;16.52;92.37
5522;BME280;2783;48.730;8.006;2023-03-24T10:45:33;99269.34;;;16.58;93.09
5522;BME280;2783;48.730;8.006;2023-03-24T10:48:00;99278.38;;;16.57;94.17
5522;BME280;2783;48.730;8.006;2023-03-24T10:50:27;99282.97;;;16.55;95.26
5522;BME280;2783;48.730;8.006;2023-03-24T10:52:53;99276.28;;;16.48;97.42
5522;BME280;2783;48.730;8.006;2023-03-24T10:55:20;99283.31;;;16.36;98.25
5522;BME280;2783;48.730;8.006;2023-03-24T10:57:54;99282.88;;;16.30;100.00
5522;BME280;2783;48.730;8.006;2023-03-24T11:00:22;99291.13;;;16.27;99.58
5522;BME280;2783;48.730;8.006;2023-03-24T11:02:53;99278.25;;;16.19;100.00
5522;BME280;2783;48.730;8.006;2023-03-24T11:05:18;99270.81;;;16.23;100.00
5522;BME280;2783;48.730;8.006;2023-03-24T11:07:48;99273.31;;;16.26;100.00
5522;BME280;2783;48.730;8.006;2023-03-24T11:10:16;99269.88;;;16.24;100.00
5522;BME280;2783;48.730;8.006;2023-03-24T11:15:21;99275.25;;;16.50;100.00
5522;BME280;2783;48.730;8.006;2023-03-24T11:17:47;99271.06;;;16.59;100.00
5522;BME280;2783;48.730;8.006;2023-03-24T11:22:58;99274.25;;;16.64;98.95
5522;BME280;2783;48.730;8.006;2023-03-24T11:25:27;99267.63;;;16.57;97.29
5522;BME280;2783;48.730;8.006;2023-03-24T11:28:00;99269.53;;;16.55;98.09
5522;BME280;2783;48.730;8.006;2023-03-24T11:30:27;99263.97;;;16.58;97.65
5522;BME280;2783;48.730;8.006;2023-03-24T11:32:55;99252.16;;;16.60;97.49
5522;BME280;2783;48.730;8.006;2023-03-24T11:35:21;99252.88;;;16.50;96.43
5522;BME280;2783;48.730;8.006;2023-03-24T11:37:47;99266.63;;;16.45;94.88
5522;BME280;2783;48.730;8.006;2023-03-24T11:42:58;99255.25;;;16.54;95.21
5522;BME280;2783;48.730;8.006;2023-03-24T11:45:29;99262.25;;;16.57;93.79
5522;BME280;2783;48.730;8.006;2023-03-24T11:47:59;99257.09;;;16.54;93.47
5522;BME280;2783;48.730;8.006;2023-03-24T11:50:27;99255.56;;;16.50;92.78
5522;BME280;2783;48.730;8.006;2023-03-24T11:55:23;99274.69;;;16.58;93.92
5522;BME280;2783;48.730;8.006;2023-03-24T12:00:32;99274.59;;;16.47;93.67
5522;BME280;2783;48.730;8.006;2023-03-24T12:03:10;99281.06;;;16.43;94.13
5522;BME280;2783;48.730;8.006;2023-03-24T12:05:45;99284.66;;;16.17;95.62
5522;BME280;2783;48.730;8.006;2023-03-24T12:08:29;99293.25;;;16.22;97.40
5522;BME280;2783;48.730;8.006;2023-03-24T12:13:31;99298.19;;;16.15;98.32
5522;BME280;2783;48.730;8.006;2023-03-24T12:26:41;99340.38;;;15.58;94.84
5522;BME280;2783;48.730;8.006;2023-03-24T12:31:45;99335.09;;;15.29;94.66
5522;BME280;2783;48.730;8.006;2023-03-24T12:34:29;99334.41;;;15.11;96.42
5522;BME280;2783;48.730;8.006;2023-03-24T12:39:36;99327.59;;;14.92;99.02
5522;BME280;2783;48.730;8.006;2023-03-24T12:42:10;99340.78;;;14.81;100.00
5522;BME280;2783;48.730;8.006;2023-03-24T12:50:12;99340.25;;;14.60;100.00
5522;BME280;2783;48.730;8.006;2023-03-24T12:55:09;99327.94;;;14.58;100.00
5522;BME280;2783;48.730;8.006;2023-03-24T12:57:38;99329.63;;;14.59;100.00
5522;BME280;2783;48.730;8.006;2023-03-24T13:00:06;99315.84;;;14.50;100.00
5522;BME280;2783;48.730;8.006;2023-03-24T13:05:03;99309.13;;;14.43;100.00
5522;BME280;2783;48.730;8.006;2023-03-24T13:07:39;99317.84;;;14.47;100.00
5522;BME280;2783;48.730;8.006;2023-03-24T13:13:22;99318.25;;;14.55;100.00
5522;BME280;2783;48.730;8.006;2023-03-24T13:18:34;99310.00;;;14.44;100.00
5522;BME280;2783;48.730;8.006;2023-03-24T13:21:17;99313.06;;;14.38;100.00
5522;BME280;2783;48.730;8.006;2023-03-24T13:31:22;99303.06;;;14.56;100.00
5522;BME280;2783;48.730;8.006;2023-03-24T13:33:50;99299.53;;;14.55;100.00
5522;BME280;2783;48.730;8.006;2023-03-24T13:41:16;99323.47;;;14.86;100.00
5522;BME280;2783;48.730;8.006;2023-03-24T13:43:50;99310.47;;;14.94;100.00
5522;BME280;2783;48.730;8.006;2023-03-24T13:46:16;99300.25;;;15.01;100.00
5522;BME280;2783;48.730;8.006;2023-03-24T13:53:55;99312.03;;;15.26;100.00
5522;BME280;2783;48.730;8.006;2023-03-24T13:56:31;99311.16;;;15.26;100.00
5522;BME280;2783;48.730;8.006;2023-03-24T14:01:30;99300.38;;;15.41;100.00
5522;BME280;2783;48.730;8.006;2023-03-24T14:06:45;99298.59;;;15.68;100.00
5522;BME280;2783;48.730;8.006;2023-03-24T14:09:19;99291.91;;;15.75;98.87
5522;BME280;2783;48.730;8.006;2023-03-24T14:14:23;99275.13;;;15.86;96.71
5522;BME280;2783;48.730;8.006;2023-03-24T14:19:31;99267.44;;;16.07;96.53
5522;BME280;2783;48.730;8.006;2023-03-24T14:24:28;99269.22;;;16.20;98.15
5522;BME280;2783;48.730;8.006;2023-03-24T14:26:54;99268.13;;;16.23;99.11
5522;BME280;2783;48.730;8.006;2023-03-24T14:31:59;99270.22;;;16.32;99.00
5522;BME280;2783;48.730;8.006;2023-03-24T14:34:25;99274.38;;;16.23;99.12
5522;BME280;2783;48.730;8.006;2023-03-24T14:36:59;99280.41;;;16.27;98.92
5522;BME280;2783;48.730;8.006;2023-03-24T14:39:40;99279.97;;;16.33;100.00
5522;BME280;2783;48.730;8.006;2023-03-24T14:42:27;99280.75;;;16.35;100.00
5522;BME280;2783;48.730;8.006;2023-03-24T14:44:54;99281.72;;;16.34;100.00
5522;BME280;2783;48.730;8.006;2023-03-24T14:47:20;99274.06;;;16.28;100.00
5522;BME280;2783;48.730;8.006;2023-03-24T14:49:47;99273.78;;;16.32;100.00
5522;BME280;2783;48.730;8.006;2023-03-24T14:52:24;99280.63;;;16.36;100.00
5522;BME280;2783;48.730;8.006;2023-03-24T14:54:57;99278.75;;;16.51;99.85
5522;BME280;2783;48.730;8.006;2023-03-24T14:57:24;99269.34;;;16.58;98.32
5522;BME280;2783;48.730;8.006;2023-03-24T15:07:34;99265.03;;;16.55;97.21
5522;BME280;2783;48.730;8.006;2023-03-24T15:09:59;99267.41;;;16.60;96.29
5522;BME280;2783;48.730;8.006;2023-03-24T15:12:25;99260.94;;;16.62;96.20
5522;BME280;2783;48.730;8.006;2023-03-24T15:14:50;99271.06;;;16.84;95.49
5522;BME280;2783;48.730;8.006;2023-03-24T15:17:20;99275.16;;;16.77;94.32
5522;BME280;2783;48.730;8.006;2023-03-24T15:19:48;99269.97;;;16.74;94.85
5522;BME280;2783;48.730;8.006;2023-03-24T15:22:14;99268.28;;;16.60;94.09
5522;BME280;2783;48.730;8.006;2023-03-24T15:24:40;99273.13;;;16.41;94.65
5522;BME280;2783;48.730;8.006;2023-03-24T15:29:41;99276.25;;;16.35;95.30
5522;BME280;2783;48.730;8.006;2023-03-24T15:32:06;99263.53;;;16.25;96.73
5522;BME280;2783;48.730;8.006;2023-03-24T15:34:39;99263.84;;;16.20;98.30
5522;BME280;2783;48.730;8.006;2023-03-24T15:37:05;99264.41;;;16.25;99.57
5522;BME280;2783;48.730;8.006;2023-03-24T15:39:42;99264.63;;;16.35;99.53
5522;BME280;2783;48.730;8.006;2023-03-24T15:42:13;99261.28;;;16.58;98.64
5522;BME280;2783;48.730;8.006;2023-03-24T15:44:41;99260.94;;;16.50;97.73
5522;BME280;2783;48.730;8.006;2023-03-24T15:47:14;99266.31;;;16.50;97.82
5522;BME280;2783;48.730;8.006;2023-03-24T15:54:50;99260.25;;;16.34;96.87
5522;BME280;2783;48.730;8.006;2023-03-24T15:57:19;99256.38;;;16.38;96.25
5522;BME280;2783;48.730;8.006;2023-03-24T15:59:47;99249.50;;;16.34;95.25